Time;durP1;ratioP1;P1;durP2;ratioP2;P2;SDS_P1;SDS_P2;PMS_P1;PMS_P2;Temp;Humidity;BMP_temperature;BMP_pressure;BME280_temperature;BME280_humidity;BME280_pressure;Samples;Min_cycle;Max_cycle;Signal;HPM_P1;HPM_P2
2022/04/05 00:00:53;;;;;;;41.40;20.57;;;;;;;8.74;100.00;100439.06;5254415;28;20021;-84
2022/04/05 00:03:25;;;;;;;33.13;18.43;;;;;;;8.75;100.00;100435.53;5236693;28;20379;-84
2022/04/05 00:05:56;;;;;;;31.30;16.50;;;;;;;8.77;100.00;100444.13;5267904;28;20502;-86
2022/04/05 00:08:27;;;;;;;27.67;17.53;;;;;;;8.74;100.00;100439.06;5254933;28;20032;-85
2022/04/05 00:10:59;;;;;;;31.30;17.50;;;;;;;8.75;100.00;100452.03;5234371;28;20017;-85
2022/04/05 00:13:30;;;;;;;38.23;18.80;;;;;;;8.66;100.00;100440.38;5254489;28;20037;-85
2022/04/05 00:16:01;;;;;;;26.87;16.17;;;;;;;8.69;100.00;100442.78;5254654;28;20032;-86
2022/04/05 00:18:33;;;;;;;29.00;16.37;;;;;;;8.73;100.00;100451.28;5237110;28;20029;-86
2022/04/05 00:21:05;;;;;;;34.03;16.50;;;;;;;8.74;100.00;100449.53;5242884;28;20036;-86
2022/04/05 00:23:36;;;;;;;33.87;15.33;;;;;;;8.85;100.00;100449.72;5254488;28;20029;-86
2022/04/05 00:26:07;;;;;;;31.90;15.57;;;;;;;8.88;100.00;100452.19;5252861;28;20507;-85
2022/04/05 00:28:39;;;;;;;32.97;16.33;;;;;;;8.89;100.00;100453.00;5236733;28;20091;-84
2022/04/05 00:31:10;;;;;;;27.13;14.50;;;;;;;8.95;100.00;100439.59;5254064;28;20028;-86
2022/04/05 00:33:41;;;;;;;35.17;17.23;;;;;;;8.93;100.00;100449.28;5254180;28;20032;-85
2022/04/05 00:36:12;;;;;;;31.83;15.23;;;;;;;8.94;100.00;100450.94;5235925;28;20032;-85
2022/04/05 00:38:44;;;;;;;37.60;17.87;;;;;;;8.92;100.00;100445.00;5253117;28;20034;-85
2022/04/05 00:41:15;;;;;;;29.63;17.20;;;;;;;8.91;100.00;100453.75;5234867;28;20029;-85
2022/04/05 00:43:46;;;;;;;36.37;16.43;;;;;;;8.90;100.00;100450.28;5253744;28;20543;-85
2022/04/05 00:46:18;;;;;;;30.13;15.90;;;;;;;8.92;100.00;100450.22;5254180;28;20118;-85
2022/04/05 00:48:57;;;;;;;34.43;16.13;;;;;;;8.92;100.00;100452.84;5235867;28;20056;-85
2022/04/05 00:51:29;;;;;;;28.63;16.30;;;;;;;8.90;100.00;100446.84;5236896;28;20438;-85
2022/04/05 00:54:05;;;;;;;33.67;17.90;;;;;;;8.83;100.00;100446.38;5253801;28;20029;-85
2022/04/05 00:56:36;;;;;;;34.07;15.80;;;;;;;8.90;100.00;100452.09;5253201;28;20064;-85
2022/04/05 00:59:09;;;;;;;33.90;15.40;;;;;;;8.88;100.00;100452.19;5253683;28;20072;-84
2022/04/05 01:01:40;;;;;;;33.20;16.47;;;;;;;8.88;100.00;100457.41;5253915;28;20041;-85
2022/04/05 01:04:12;;;;;;;30.40;15.63;;;;;;;8.82;100.00;100452.53;5253149;28;20075;-85
2022/04/05 01:06:44;;;;;;;34.77;16.57;;;;;;;8.80;100.00;100446.53;5253800;28;20080;-85
2022/04/05 01:09:16;;;;;;;25.70;15.97;;;;;;;8.86;100.00;100451.41;5267631;28;20028;-86
2022/04/05 01:11:48;;;;;;;33.00;17.60;;;;;;;8.85;100.00;100457.56;5252736;28;20124;-85
2022/04/05 01:14:20;;;;;;;31.20;17.00;;;;;;;8.87;100.00;100453.09;5253461;28;20055;-86
2022/04/05 01:16:51;;;;;;;37.53;18.00;;;;;;;8.89;100.00;100448.63;5252664;28;20399;-85
2022/04/05 01:19:24;;;;;;;34.63;18.50;;;;;;;8.88;100.00;100459.16;5253238;28;20102;-84
2022/04/05 01:21:55;;;;;;;27.67;17.10;;;;;;;8.90;100.00;100450.28;5252982;28;20028;-85
2022/04/05 01:24:27;;;;;;;29.43;18.33;;;;;;;8.91;100.00;100452.00;5224156;28;20051;-84
2022/04/05 01:27:02;;;;;;;32.17;16.83;;;;;;;8.87;100.00;100458.31;5251515;28;20029;-85
2022/04/05 01:29:34;;;;;;;26.27;16.38;;;;;;;8.87;100.00;100460.91;5253072;28;20504;-85
2022/04/05 01:32:07;;;;;;;33.83;17.13;;;;;;;8.88;100.00;100462.63;5253598;28;20036;-85
2022/04/05 01:34:39;;;;;;;34.53;17.03;;;;;;;8.82;100.00;100463.81;5252444;28;20115;-86
2022/04/05 01:37:10;;;;;;;29.63;16.63;;;;;;;8.81;100.00;100463.91;5252941;28;20035;-86
2022/04/05 01:39:42;;;;;;;28.83;16.00;;;;;;;8.85;100.00;100462.78;5252836;28;20229;-84
2022/04/05 01:42:14;;;;;;;28.40;16.30;;;;;;;8.76;100.00;100469.38;5252409;28;20525;-84
2022/04/05 01:44:45;;;;;;;26.13;15.27;;;;;;;8.81;100.00;100463.91;5253072;28;20062;-84
2022/04/05 01:47:18;;;;;;;26.43;16.00;;;;;;;8.87;100.00;100465.28;5235046;28;20032;-85
2022/04/05 01:49:49;;;;;;;28.43;16.17;;;;;;;8.80;100.00;100459.59;5253140;28;20027;-84
2022/04/05 01:52:20;;;;;;;30.40;15.83;;;;;;;8.85;100.00;100465.38;5253085;28;20025;-84
2022/04/05 01:54:52;;;;;;;24.97;15.40;;;;;;;8.89;100.00;100466.06;5252863;28;20040;-84
2022/04/05 01:57:23;;;;;;;30.97;15.77;;;;;;;8.88;100.00;100475.69;5251460;28;20422;-84
2022/04/05 01:59:54;;;;;;;29.10;15.47;;;;;;;8.78;100.00;100456.25;5252971;28;20040;-83
2022/04/05 02:02:26;;;;;;;28.70;16.37;;;;;;;8.87;100.00;100463.53;5251096;28;20041;-85
2022/04/05 02:04:57;;;;;;;28.10;14.93;;;;;;;8.81;100.00;100464.72;5252217;28;20429;-76
2022/04/05 02:07:29;;;;;;;23.10;13.37;;;;;;;8.80;100.00;100463.06;5251905;28;20037;-85
2022/04/05 02:10:00;;;;;;;28.30;15.33;;;;;;;8.85;100.00;100470.63;5251771;28;20275;-85
2022/04/05 02:12:31;;;;;;;22.77;14.17;;;;;;;8.87;100.00;100460.91;5252124;28;20028;-85
2022/04/05 02:15:04;;;;;;;22.63;13.93;;;;;;;8.85;100.00;100468.00;5252018;28;20048;-86
2022/04/05 02:17:36;;;;;;;21.03;13.90;;;;;;;8.80;100.00;100452.63;5252756;28;20029;-85
2022/04/05 02:20:08;;;;;;;21.40;13.60;;;;;;;8.85;100.00;100472.41;5252286;28;20487;-86
2022/04/05 02:22:39;;;;;;;23.43;14.37;;;;;;;8.83;100.00;100468.09;5247916;28;20507;-86
2022/04/05 02:25:11;;;;;;;22.77;13.70;;;;;;;8.81;100.00;100469.13;5251848;28;20091;-86
2022/04/05 02:27:42;;;;;;;20.40;13.23;;;;;;;8.82;100.00;100466.44;5252591;28;20031;-86
2022/04/05 02:30:14;;;;;;;27.00;13.87;;;;;;;8.88;100.00;100467.00;5267406;28;20033;-85
2022/04/05 02:32:45;;;;;;;23.80;14.40;;;;;;;8.90;100.00;100468.56;5267661;28;20013;-86
2022/04/05 02:35:16;;;;;;;25.83;15.43;;;;;;;8.85;100.00;100465.38;5256669;28;20380;-86
2022/04/05 02:37:47;;;;;;;22.23;13.60;;;;;;;8.88;100.00;100473.06;5256656;28;20442;-86
2022/04/05 02:40:19;;;;;;;25.23;13.27;;;;;;;8.86;100.00;100468.84;5255810;28;20373;-86
2022/04/05 02:42:50;;;;;;;23.37;15.60;;;;;;;8.81;100.00;100456.06;5256926;28;20468;-86
2022/04/05 02:45:22;;;;;;;30.60;15.03;;;;;;;8.89;100.00;100468.66;5256344;28;20025;-86
2022/04/05 02:47:53;;;;;;;23.43;13.47;;;;;;;8.90;100.00;100472.97;5238166;28;20021;-84
2022/04/05 02:50:25;;;;;;;23.03;13.80;;;;;;;8.94;100.00;100472.69;5256081;28;20458;-85
2022/04/05 02:52:57;;;;;;;21.43;13.83;;;;;;;8.89;100.00;100459.06;5256710;28;20028;-78
2022/04/05 02:55:28;;;;;;;21.70;13.90;;;;;;;8.89;100.00;100464.28;5255172;28;20033;-86
2022/04/05 02:57:59;;;;;;;21.63;14.00;;;;;;;8.92;100.00;100466.72;5238543;28;20037;-85
2022/04/05 03:00:31;;;;;;;26.73;14.43;;;;;;;8.91;100.00;100467.66;5263256;28;20114;-84
2022/04/05 03:03:03;;;;;;;26.10;14.83;;;;;;;8.93;100.00;100465.81;5254645;28;20012;-84
2022/04/05 03:05:34;;;;;;;24.43;15.03;;;;;;;8.81;100.00;100458.69;5256143;28;20480;-84
2022/04/05 03:08:05;;;;;;;19.07;14.33;;;;;;;8.89;100.00;100464.28;5255717;28;20017;-85
2022/04/05 03:10:37;;;;;;;27.17;15.83;;;;;;;8.91;100.00;100472.03;5260420;28;20029;-85
2022/04/05 03:13:08;;;;;;;20.17;14.27;;;;;;;8.90;100.00;100465.97;5261419;28;20021;-85
2022/04/05 03:15:40;;;;;;;24.43;15.30;;;;;;;8.89;100.00;100464.28;5263841;28;20033;-85
2022/04/05 03:18:12;;;;;;;26.90;14.20;;;;;;;8.90;100.00;100460.75;5255829;28;20044;-85
2022/04/05 03:20:43;;;;;;;28.60;15.40;;;;;;;8.92;100.00;100471.13;5255730;28;20048;-85
2022/04/05 03:23:15;;;;;;;21.50;14.37;;;;;;;8.91;100.00;100462.44;5255571;28;20028;-85
2022/04/05 03:25:47;;;;;;;32.07;15.77;;;;;;;8.91;100.00;100462.44;5254807;28;20082;-85
2022/04/05 03:28:20;;;;;;;20.87;14.00;;;;;;;8.93;100.00;100465.81;5255976;28;20021;-85
2022/04/05 03:30:51;;;;;;;23.50;15.60;;;;;;;8.91;100.00;100472.88;5255529;28;20495;-84
2022/04/05 03:33:23;;;;;;;22.07;13.27;;;;;;;8.93;100.00;100464.94;5255460;28;20025;-84
2022/04/05 03:35:55;;;;;;;24.80;14.90;;;;;;;8.93;100.00;100468.41;5255984;28;20033;-85
2022/04/05 03:38:26;;;;;;;25.23;13.67;;;;;;;8.87;100.00;100460.91;5255317;28;20036;-84
2022/04/05 03:40:57;;;;;;;23.13;13.53;;;;;;;8.97;100.00;100466.47;5254156;28;20560;-85
2022/04/05 03:43:29;;;;;;;21.67;13.20;;;;;;;8.89;100.00;100459.06;5255186;28;20032;-85
2022/04/05 03:46:00;;;;;;;23.83;14.03;;;;;;;8.94;100.00;100462.25;5254785;28;20040;-85
2022/04/05 03:48:31;;;;;;;18.97;13.13;;;;;;;8.90;100.00;100460.75;5255117;28;20025;-85
2022/04/05 03:51:09;;;;;;;21.03;12.47;;;;;;;8.90;100.00;100458.13;5255107;28;20029;-85
2022/04/05 03:53:41;;;;;;;24.17;13.67;;;;;;;8.97;100.00;100460.38;5255086;28;20052;-86
2022/04/05 03:56:12;;;;;;;26.80;14.37;;;;;;;8.81;100.00;100448.25;5246195;28;20033;-85
2022/04/05 03:58:44;;;;;;;26.17;14.67;;;;;;;8.90;100.00;100455.50;5255552;28;20029;-86
2022/04/05 04:01:15;;;;;;;23.13;11.97;;;;;;;8.90;100.00;100465.97;5254376;28;20071;-85
2022/04/05 04:03:46;;;;;;;19.47;13.33;;;;;;;8.90;100.00;100455.50;5255043;28;20029;-85
2022/04/05 04:06:18;;;;;;;21.20;11.93;;;;;;;8.92;100.00;100458.88;5254204;28;20483;-85
2022/04/05 04:08:49;;;;;;;22.73;13.17;;;;;;;8.92;100.00;100453.66;5256854;28;20044;-85
2022/04/05 04:11:20;;;;;;;19.37;12.13;;;;;;;8.87;100.00;100455.69;5258000;28;20036;-86
2022/04/05 04:13:51;;;;;;;19.80;12.10;;;;;;;8.86;100.00;100454.03;5254523;28;20472;-86
2022/04/05 04:16:23;;;;;;;17.97;13.17;;;;;;;8.86;100.00;100445.34;5254876;28;20460;-87
2022/04/05 04:18:54;;;;;;;21.30;12.17;;;;;;;8.89;100.00;100459.06;5254829;28;20534;-86
2022/04/05 04:21:25;;;;;;;19.83;12.13;;;;;;;8.90;100.00;100460.75;5235988;28;20082;-86
2022/04/05 04:23:57;;;;;;;20.37;13.03;;;;;;;8.88;100.00;100456.56;5254291;28;20029;-85
2022/04/05 04:26:28;;;;;;;21.37;13.30;;;;;;;8.85;100.00;100448.91;5253923;28;20068;-85
2022/04/05 04:29:02;;;;;;;17.13;12.50;;;;;;;8.91;100.00;100462.44;5254561;28;20033;-86
2022/04/05 04:31:33;;;;;;;18.27;12.85;;;;;;;8.90;100.00;100465.97;5254513;28;20041;-86
2022/04/05 04:34:05;;;;;;;18.93;12.57;;;;;;;8.91;100.00;100457.22;5254172;28;20059;-85
2022/04/05 04:36:36;;;;;;;18.00;11.90;;;;;;;8.89;100.00;100461.69;5254795;28;20043;-88
2022/04/05 04:39:08;;;;;;;15.07;12.33;;;;;;;8.86;100.00;100454.03;5254499;28;20079;-88
2022/04/05 04:41:40;;;;;;;19.97;12.43;;;;;;;8.92;100.00;100458.06;5253221;28;20074;-85
2022/04/05 04:44:11;;;;;;;18.47;12.60;;;;;;;8.92;100.00;100463.28;5254032;28;20025;-86
2022/04/05 04:46:43;;;;;;;19.33;12.30;;;;;;;8.92;100.00;100464.09;5240405;28;20034;-88
2022/04/05 04:49:14;;;;;;;14.63;13.17;;;;;;;8.86;100.00;100461.88;5252651;28;20082;-87
2022/04/05 04:51:46;;;;;;;20.93;12.77;;;;;;;8.87;100.00;100455.69;5253355;28;20029;-86
2022/04/05 04:54:17;;;;;;;18.70;11.70;;;;;;;8.91;100.00;100454.59;5253268;28;20743;-87
2022/04/05 04:56:48;;;;;;;17.07;12.13;;;;;;;8.89;100.00;100464.28;5253251;28;20377;-85
2022/04/05 04:59:20;;;;;;;16.73;11.33;;;;;;;8.94;100.00;100472.69;5235286;28;20483;-85
2022/04/05 05:01:51;;;;;;;16.70;13.00;;;;;;;8.92;100.00;100471.94;5254049;28;20039;-85
2022/04/05 05:04:22;;;;;;;16.77;11.83;;;;;;;8.91;100.00;100464.19;5253334;28;20036;-86
2022/04/05 05:06:53;;;;;;;13.83;12.07;;;;;;;8.90;100.00;100463.34;5253086;28;20029;-85
2022/04/05 05:09:24;;;;;;;16.20;12.50;;;;;;;8.85;100.00;100457.56;5253419;28;20032;-85
2022/04/05 05:11:56;;;;;;;16.80;12.07;;;;;;;8.79;100.00;100455.31;5252246;28;20043;-86
2022/04/05 05:14:27;;;;;;;19.97;13.33;;;;;;;8.90;100.00;100468.56;5252516;28;20041;-84
2022/04/05 05:16:58;;;;;;;15.37;13.07;;;;;;;8.93;100.00;100470.19;5252881;28;20036;-79
2022/04/05 05:19:30;;;;;;;17.07;12.50;;;;;;;8.91;100.00;100470.28;5253507;28;20078;-82
2022/04/05 05:22:01;;;;;;;16.03;11.60;;;;;;;8.80;100.00;100455.22;5252690;28;20029;-85
2022/04/05 05:24:34;;;;;;;15.87;12.23;;;;;;;8.84;100.00;100474.16;5253909;28;20047;-86
2022/04/05 05:27:05;;;;;;;13.63;11.70;;;;;;;8.92;100.00;100479.78;5251974;28;20017;-77
2022/04/05 05:29:36;;;;;;;22.13;12.57;;;;;;;8.89;100.00;100477.34;5234628;28;20044;-77
2022/04/05 05:32:08;;;;;;;14.33;12.23;;;;;;;8.80;100.00;100475.25;5233967;28;20024;-77
2022/04/05 05:34:39;;;;;;;15.83;11.97;;;;;;;8.86;100.00;100464.47;5252555;28;20032;-77
2022/04/05 05:37:10;;;;;;;15.47;12.03;;;;;;;8.88;100.00;100475.69;5252231;28;20037;-77
2022/04/05 05:39:42;;;;;;;13.03;11.37;;;;;;;8.86;100.00;100474.91;5251076;28;20040;-76
2022/04/05 05:42:13;;;;;;;16.23;11.93;;;;;;;8.93;100.00;100481.47;5251154;28;20545;-77
2022/04/05 05:44:44;;;;;;;15.20;12.53;;;;;;;8.85;100.00;100468.00;5252355;28;20483;-77
2022/04/05 05:47:16;;;;;;;17.30;12.40;;;;;;;8.92;100.00;100485.00;5252064;28;20059;-77
2022/04/05 05:49:47;;;;;;;17.00;12.70;;;;;;;8.89;100.00;100479.13;5234982;28;20096;-78
2022/04/05 05:52:18;;;;;;;18.20;13.40;;;;;;;8.88;100.00;100475.69;5253155;28;20056;-78
2022/04/05 05:54:50;;;;;;;18.83;13.00;;;;;;;8.94;100.00;100501.44;5253017;28;20040;-78
2022/04/05 05:57:21;;;;;;;19.30;13.67;;;;;;;8.94;100.00;100504.03;5247802;28;20042;-77
2022/04/05 05:59:53;;;;;;;19.33;13.63;;;;;;;8.92;100.00;100499.84;5232695;28;20446;-78
2022/04/05 06:02:24;;;;;;;16.63;14.13;;;;;;;8.92;100.00;100503.28;5251133;28;20589;-79
2022/04/05 06:04:55;;;;;;;17.83;14.77;;;;;;;8.93;100.00;100504.97;5252480;28;20039;-77
2022/04/05 06:07:26;;;;;;;21.10;14.00;;;;;;;8.96;100.00;100503.94;5251389;28;20039;-77
2022/04/05 06:09:58;;;;;;;21.97;13.37;;;;;;;8.99;100.00;100505.56;5244977;28;20391;-78
2022/04/05 06:12:29;;;;;;;18.20;14.00;;;;;;;8.94;100.00;100498.81;5245174;28;20025;-77
2022/04/05 06:15:00;;;;;;;24.57;13.87;;;;;;;8.94;100.00;100506.66;5252441;28;20033;-77
2022/04/05 06:17:32;;;;;;;20.93;13.20;;;;;;;8.95;100.00;100500.47;5252168;28;20021;-77
2022/04/05 06:20:05;;;;;;;21.43;13.93;;;;;;;8.97;100.00;100510.03;5252077;28;20078;-77
2022/04/05 06:22:41;;;;;;;17.70;12.37;;;;;;;8.92;100.00;100495.44;5252041;28;20147;-78
2022/04/05 06:25:15;;;;;;;19.77;13.10;;;;;;;8.98;100.00;100503.84;5250655;28;20198;-77
2022/04/05 06:27:47;;;;;;;23.63;13.15;;;;;;;9.01;100.00;100514.97;5233423;28;20116;-78
2022/04/05 06:30:19;;;;;;;17.90;12.17;;;;;;;8.96;100.00;100506.56;5251644;28;20028;-71
2022/04/05 06:32:50;;;;;;;19.10;12.87;;;;;;;8.99;100.00;100516.81;5207697;28;20017;-71
2022/04/05 06:35:23;;;;;;;18.70;13.00;;;;;;;8.99;100.00;100516.81;5231859;28;20018;-70
2022/04/05 06:37:55;;;;;;;20.23;11.67;;;;;;;8.98;100.00;100515.16;5223537;28;20123;-69
2022/04/05 06:40:26;;;;;;;22.43;12.73;;;;;;;9.05;100.00;100521.69;5218976;28;20037;-71
2022/04/05 06:42:57;;;;;;;19.03;12.07;;;;;;;9.05;100.00;100519.09;5218257;28;20029;-72
2022/04/05 06:45:29;;;;;;;18.33;11.30;;;;;;;9.07;100.00;100529.44;5219396;28;20040;-70
2022/04/05 06:48:00;;;;;;;20.27;10.97;;;;;;;9.07;100.00;100529.44;5220781;28;20470;-70
2022/04/05 06:50:33;;;;;;;15.83;10.77;;;;;;;9.07;100.00;100529.44;5220907;28;20025;-75
2022/04/05 06:53:07;;;;;;;14.10;10.80;;;;;;;9.08;100.00;100531.97;5232787;28;20025;-76
2022/04/05 06:55:39;;;;;;;17.27;11.30;;;;;;;9.12;100.00;100524.78;5224468;28;20037;-73
2022/04/05 06:58:10;;;;;;;18.97;10.07;;;;;;;9.07;100.00;100521.59;5225121;28;20037;-74
2022/04/05 07:00:41;;;;;;;17.87;10.10;;;;;;;9.04;100.00;100521.78;5224418;28;20037;-71
2022/04/05 07:03:12;;;;;;;15.50;10.83;;;;;;;9.10;100.00;100534.47;5223332;28;20018;-71
2022/04/05 07:05:44;;;;;;;16.03;10.67;;;;;;;9.14;100.00;100542.97;5222149;28;20033;-72
2022/04/05 07:08:15;;;;;;;13.43;9.87;;;;;;;9.11;100.00;100536.16;5224739;28;20027;-72
2022/04/05 07:10:46;;;;;;;15.67;9.17;;;;;;;9.10;100.00;100538.84;5220639;28;20125;-76
2022/04/05 07:13:17;;;;;;;15.93;9.33;;;;;;;9.14;100.00;100541.22;5220722;28;20751;-75
2022/04/05 07:15:49;;;;;;;14.03;9.07;;;;;;;9.17;100.00;100541.03;5222005;28;20073;-72
2022/04/05 07:18:20;;;;;;;18.57;9.80;;;;;;;9.19;100.00;100544.41;5229304;28;20479;-80
2022/04/05 07:20:52;;;;;;;19.63;9.70;;;;;;;9.22;100.00;100548.59;5231316;28;20552;-73
2022/04/05 07:23:23;;;;;;;14.57;9.37;;;;;;;9.20;100.00;100546.06;5227937;28;20038;-71
2022/04/05 07:25:54;;;;;;;14.37;8.73;;;;;;;9.19;100.00;100543.56;5224047;28;20032;-74
2022/04/05 07:28:26;;;;;;;15.07;8.77;;;;;;;9.22;100.00;100550.34;5229388;28;20116;-75
2022/04/05 07:30:57;;;;;;;14.30;7.93;;;;;;;9.19;100.00;100544.41;5225682;28;20029;-74
2022/04/05 07:33:29;;;;;;;12.00;8.97;;;;;;;9.19;100.00;100531.34;5234545;28;20060;-74
2022/04/05 07:36:00;;;;;;;17.07;8.93;;;;;;;9.22;100.00;100534.69;5229617;28;20040;-70
2022/04/05 07:38:31;;;;;;;11.90;8.20;;;;;;;9.17;100.00;100535.81;5239069;28;20040;-82
2022/04/05 07:41:02;;;;;;;14.67;8.73;;;;;;;9.11;100.00;100523.09;5231475;28;20060;-73
2022/04/05 07:43:34;;;;;;;13.83;7.87;;;;;;;9.20;100.00;100527.78;5227721;28;20034;-77
2022/04/05 07:46:05;;;;;;;13.90;8.50;;;;;;;9.26;100.00;100536.19;5238818;28;20025;-72
2022/04/05 07:48:36;;;;;;;19.30;9.43;;;;;;;9.28;100.00;100526.50;5222435;28;20124;-69
2022/04/05 07:51:08;;;;;;;13.37;7.60;;;;;;;9.27;100.00;100530.03;5227451;28;20163;-80
2022/04/05 07:53:40;;;;;;;16.10;7.40;;;;;;;9.26;100.00;100530.97;5224013;28;20044;-84
2022/04/05 07:56:13;;;;;;;11.53;7.97;;;;;;;9.34;100.00;100535.75;5231334;28;20034;-71
2022/04/05 07:58:44;;;;;;;13.30;8.20;;;;;;;9.35;100.00;100538.25;5224383;28;20060;-73
2022/04/05 08:01:15;;;;;;;21.13;8.63;;;;;;;9.37;100.00;100543.41;5231725;28;21385;-74
2022/04/05 08:03:47;;;;;;;15.13;7.53;;;;;;;9.32;100.00;100544.50;5235716;28;20590;-70
2022/04/05 08:06:18;;;;;;;13.53;7.00;;;;;;;9.36;100.00;100536.47;5225695;28;20031;-69
2022/04/05 08:08:50;;;;;;;8.93;6.70;;;;;;;9.36;100.00;100534.72;5227177;28;20391;-74
2022/04/05 08:11:21;;;;;;;11.40;6.53;;;;;;;9.39;100.00;100539.75;5226631;28;20672;-81
2022/04/05 08:13:53;;;;;;;13.33;6.90;;;;;;;9.44;100.00;100540.31;5220438;28;20064;-80
2022/04/05 08:16:24;;;;;;;12.70;7.87;;;;;;;9.45;100.00;100541.16;5226019;28;20037;-71
2022/04/05 08:18:55;;;;;;;13.23;6.80;;;;;;;9.49;100.00;100541.81;5232430;28;20064;-72
2022/04/05 08:21:29;;;;;;;10.13;6.57;;;;;;;9.48;100.00;100542.75;5223147;28;20066;-74
2022/04/05 08:24:00;;;;;;;9.50;6.07;;;;;;;9.50;100.00;100546.09;5227842;28;20490;-75
2022/04/05 08:26:32;;;;;;;12.83;6.57;;;;;;;9.52;100.00;100549.47;5225751;28;20045;-70
2022/04/05 08:29:03;;;;;;;9.97;6.07;;;;;;;9.55;100.00;100552.75;5208813;28;20078;-75
2022/04/05 08:31:34;;;;;;;9.70;5.87;;;;;;;9.62;100.00;100549.75;5230160;28;20044;-71
2022/04/05 08:34:05;;;;;;;11.57;6.40;;;;;;;9.61;100.00;100558.53;5209783;28;20110;-72
2022/04/05 08:36:37;;;;;;;11.37;6.37;;;;;;;9.55;100.00;100550.13;5227958;28;20033;-78
2022/04/05 08:39:08;;;;;;;12.03;7.10;;;;;;;9.55;100.00;100551.91;5228557;28;20037;-80
2022/04/05 08:41:41;;;;;;;12.43;6.33;;;;;;;9.59;100.00;100556.03;5225710;28;20120;-70
2022/04/05 08:44:18;;;;;;;12.03;6.17;;;;;;;9.64;100.00;100559.19;5224499;28;20033;-67
2022/04/05 08:46:50;;;;;;;13.37;6.77;;;;;;;9.71;100.00;100558.81;5234136;28;20064;-71
2022/04/05 08:49:21;;;;;;;11.87;6.87;;;;;;;9.63;100.00;100546.22;5230573;28;20043;-74
2022/04/05 08:51:53;;;;;;;13.00;6.80;;;;;;;9.74;100.00;100561.25;5228399;28;20029;-73
2022/04/05 08:54:24;;;;;;;11.20;6.10;;;;;;;9.77;100.00;100564.50;5226760;28;20130;-71
2022/04/05 08:56:55;;;;;;;9.10;6.23;;;;;;;9.78;100.00;100560.97;5227277;28;20044;-69
2022/04/05 08:59:30;;;;;;;10.30;6.83;;;;;;;9.79;100.00;100567.88;5233832;28;20033;-71
2022/04/05 09:02:02;;;;;;;9.50;6.20;;;;;;;9.81;100.00;100565.16;5225781;28;20079;-68
2022/04/05 09:04:33;;;;;;;8.97;5.43;;;;;;;9.82;100.00;100572.09;5227729;28;20433;-69
2022/04/05 09:07:32;;;;;;;9.33;5.83;;;;;;;9.86;100.00;100557.06;5222439;28;20537;-68
2022/04/05 09:10:13;;;;;;;7.27;5.93;;;;;;;9.88;100.00;100571.69;5224010;28;20037;-70
2022/04/05 09:12:47;;;;;;;8.20;6.60;;;;;;;9.88;100.00;100570.88;5239137;28;20112;-70
2022/04/05 09:15:18;;;;;;;9.48;6.45;;;;;;;9.93;100.00;100574.88;5222529;28;20056;-67
2022/04/05 09:17:50;;;;;;;11.10;6.73;;;;;;;10.00;100.00;100577.13;5230431;28;20037;-71
2022/04/05 09:20:26;;;;;;;10.80;6.90;;;;;;;10.04;100.00;100570.75;5226715;28;20701;-72
2022/04/05 09:23:01;;;;;;;11.37;6.77;;;;;;;10.02;100.00;100570.84;5225179;28;20049;-71
2022/04/05 09:25:32;;;;;;;;;;;;;;;10.20;100.00;100575.03;5225788;28;20038;-72
2022/04/05 09:28:05;;;;;;;9.53;6.60;;;;;;;10.10;100.00;100580.00;5233696;28;19969;-71
2022/04/05 09:30:41;;;;;;;11.77;6.40;;;;;;;10.13;100.00;100580.66;5225748;28;20251;-71
2022/04/05 09:33:13;;;;;;;11.93;7.37;;;;;;;10.14;100.00;100584.13;5222363;28;20043;-71
2022/04/05 09:35:44;;;;;;;12.30;6.97;;;;;;;10.20;100.00;100575.03;5222990;28;20045;-70
2022/04/05 09:38:18;;;;;;;9.27;6.77;;;;;;;10.21;100.00;100587.19;5225631;28;20111;-72
2022/04/05 09:40:52;;;;;;;13.32;7.47;;;;;;;10.23;100.00;100588.75;5203815;28;20026;-70
2022/04/05 09:43:23;;;;;;;12.63;7.88;;;;;;;10.21;100.00;100592.44;5222837;28;20033;-71
2022/04/05 09:45:58;;;;;;;9.40;6.80;;;;;;;10.22;100.00;100586.25;5233883;28;20024;-78
2022/04/05 09:48:34;;;;;;;9.07;6.77;;;;;;;10.23;100.00;100580.06;5250600;28;20024;-79
2022/04/05 09:51:11;;;;;;;8.80;6.73;;;;;;;10.27;100.00;100597.25;5251236;28;20405;-79
2022/04/05 09:53:47;;;;;;;10.97;7.37;;;;;;;10.28;100.00;100584.09;5251033;28;20025;-78
2022/04/05 09:56:23;;;;;;;12.23;7.80;;;;;;;10.35;100.00;100583.72;5249271;28;20445;-81
2022/04/05 09:58:57;;;;;;;13.40;7.87;;;;;;;10.40;100.00;100590.31;5251566;28;20075;-80
2022/04/05 10:01:29;;;;;;;11.35;7.72;;;;;;;10.41;100.00;100585.94;5251855;28;20052;-81
2022/04/05 10:04:03;;;;;;;11.83;7.23;;;;;;;10.41;100.00;100584.16;5251874;28;20016;-82
2022/04/05 10:06:39;;;;;;;12.25;7.70;;;;;;;10.39;100.00;100580.78;5251660;28;20035;-76
2022/04/05 10:09:12;;;;;;;7.93;6.50;;;;;;;10.44;100.00;100592.75;5250368;28;20507;-76
2022/04/05 10:11:44;;;;;;;10.60;6.60;;;;;;;10.37;100.00;100582.66;5251618;28;20060;-73
2022/04/05 10:14:20;;;;;;;11.10;6.23;;;;;;;10.36;100.00;100590.63;5234664;28;20507;-74
2022/04/05 10:16:52;;;;;;;14.20;6.63;;;;;;;10.34;100.00;100590.72;5252118;28;20103;-72
2022/04/05 10:19:24;;;;;;;10.30;6.13;;;;;;;10.38;100.00;100593.97;5252281;28;20127;-79
2022/04/05 10:21:58;;;;;;;10.53;7.10;;;;;;;10.43;100.00;100596.31;5236502;28;20045;-79
2022/04/05 10:24:30;;;;;;;8.53;6.13;;;;;;;10.42;100.00;100595.44;5228621;28;20063;-76
2022/04/05 10:27:04;;;;;;;9.27;6.00;;;;;;;10.48;100.00;100592.50;5250524;28;20114;-76
2022/04/05 10:29:36;;;;;;;9.40;5.85;;;;;;;10.57;100.00;100604.16;5251609;28;20055;-78
2022/04/05 10:32:18;;;;;;;6.83;5.50;;;;;;;10.59;100.00;100597.06;5251160;28;20060;-78
2022/04/05 10:35:02;;;;;;;9.90;5.03;;;;;;;10.69;100.00;100592.06;5252290;28;20056;-78
2022/04/05 10:37:36;;;;;;;8.73;5.37;;;;;;;10.65;100.00;100591.41;5228784;28;20499;-78
2022/04/05 10:40:10;;;;;;;7.03;5.20;;;;;;;10.67;100.00;100601.78;5251095;28;20507;-77
2022/04/05 10:42:51;;;;;;;7.57;5.53;;;;;;;10.71;100.00;100592.81;5252526;28;20049;-77
2022/04/05 10:45:29;;;;;;;9.47;5.73;;;;;;;10.84;100.00;100594.63;5234186;28;20087;-79
2022/04/05 10:48:18;;;;;;;9.63;6.13;;;;;;;10.93;100.00;100587.91;5233902;28;20029;-79
2022/04/05 10:51:01;;;;;;;7.53;5.67;;;;;;;10.98;100.00;100596.31;5253674;28;20028;-78
2022/04/05 10:53:34;;;;;;;8.00;5.13;;;;;;;10.88;100.00;100599.56;5256845;28;20398;-79
2022/04/05 10:56:07;;;;;;;7.83;5.10;;;;;;;10.94;100.00;100590.47;5254639;28;20053;-78
2022/04/05 10:58:40;;;;;;;10.07;4.90;;;;;;;10.97;100.00;100586.78;5255727;28;20434;-78
2022/04/05 11:01:17;;;;;;;5.37;4.87;;;;;;;11.00;100.00;100590.06;5255512;28;20573;-80
2022/04/05 11:04:17;;;;;;;7.47;4.50;;;;;;;11.10;100.00;100586.84;5255741;28;20025;-79
2022/04/05 11:06:58;;;;;;;7.27;4.50;;;;;;;11.10;100.00;100587.66;5245081;28;20451;-79
2022/04/05 11:09:33;;;;;;;8.27;4.57;;;;;;;11.21;100.00;100586.09;5255167;28;20021;-79
2022/04/05 11:12:10;;;;;;;6.13;4.00;;;;;;;11.19;100.00;100588.00;5255522;28;20025;-79
2022/04/05 11:14:45;;;;;;;5.80;4.37;;;;;;;11.25;100.00;100591.06;5255927;28;20059;-79
2022/04/05 11:17:19;;;;;;;7.70;5.23;;;;;;;11.28;100.00;100590.00;5255373;28;20456;-79
2022/04/05 11:19:52;;;;;;;8.10;4.80;;;;;;;11.17;100.00;100574.16;5256231;28;20025;-79
2022/04/05 11:22:23;;;;;;;8.80;4.23;;;;;;;11.30;100.00;100597.75;5241557;28;20111;-79
2022/04/05 11:25:00;;;;;;;6.60;4.43;;;;;;;11.26;100.00;100594.50;5233304;28;20125;-79
2022/04/05 11:27:46;;;;;;;6.43;4.33;;;;;;;11.27;100.00;100596.19;5254134;28;20804;-79
2022/04/05 11:30:20;;;;;;;8.40;4.77;;;;;;;11.24;100.00;100580.66;5254863;28;20025;-79
2022/04/05 11:33:09;;;;;;;5.90;4.40;;;;;;;11.35;100.00;100583.41;5255630;28;20029;-79
2022/04/05 11:35:51;;;;;;;11.30;5.47;;;;;;;11.34;100.00;100586.97;5255465;28;20115;-79